PWSweather.com
Personal Weather Stations
Station Observations
PICKERING
North Yorkshire, PickeringGB

North YorkshirePickeringGB

Lat: 54.2494, Lon: -0.7725

Elevation: 192

Station Type: Oregon Scientific WMR100

http://www.yorkshirewalker.co.uk/weather/

High Low Average
Temperature 81.3°F27.4°C 43.2°F6.2°C 58.5°F14.7°C
Dew Point 55.4°F13.0°C 30.2°F-1.0°C 40.7°F4.8°C
Winds 7.3 mph 11.7 kmh Calm Calm 3.0 mph ESE4.8 kmh ESE
Wind Gusts 13.0 mph20.9 kmh -- 5.0 mph8.0 kmh
Humidity 70% 36% 53%
Pressure 30.42 in1030.1 mb 30.21 in1023.0 mb -
Precipitation 0.00 in0.0 mm - -
Hour Temp Dew Point Humidity Winds Wind Gusts Pressure Precip Precip Rate Daily Precip Total
12:00 AM 50.4°F10.2°C 39.2°F4.0°C 63% 1.6 mph NE2.6 kmh NE 2.5 mph4.0 kmh 30.42 in1030.1 mb 0.00 in0.0 mm 0.00 in0.0 mm 0.00 in0.0 mm
12:05 AM 50.4°F10.2°C 39.2°F4.0°C 63% 1.7 mph NE2.7 kmh NE 2.5 mph4.0 kmh 30.42 in1030.1 mb 0.00 in0.0 mm 0.00 in0.0 mm 0.00 in0.0 mm
12:10 AM 50.2°F10.1°C 37.4°F3.0°C 63% 1.3 mph NE2.1 kmh NE 2.2 mph3.5 kmh 30.42 in1030.1 mb 0.00 in0.0 mm 0.00 in0.0 mm 0.00 in0.0 mm
12:15 AM 49.8°F9.9°C 37.4°F3.0°C 63% 1.1 mph NE1.8 kmh NE 2.2 mph3.5 kmh 30.42 in1030.1 mb 0.00 in0.0 mm 0.00 in0.0 mm 0.00 in0.0 mm
12:20 AM 49.6°F9.8°C 37.4°F3.0°C 63% 1.0 mph NE1.6 kmh NE 2.0 mph3.2 kmh 30.42 in1030.1 mb 0.00 in0.0 mm 0.00 in0.0 mm 0.00 in0.0 mm
12:25 AM 49.6°F9.8°C 37.4°F3.0°C 63% 1.6 mph NE2.6 kmh NE 2.7 mph4.3 kmh 30.42 in1030.1 mb 0.00 in0.0 mm 0.00 in0.0 mm 0.00 in0.0 mm
12:30 AM 49.3°F9.6°C 37.4°F3.0°C 63% 1.4 mph NE2.3 kmh NE 2.7 mph4.3 kmh 30.42 in1030.1 mb 0.00 in0.0 mm 0.00 in0.0 mm 0.00 in0.0 mm
12:35 AM 49.3°F9.6°C 37.4°F3.0°C 63% 1.3 mph NE2.1 kmh NE 2.5 mph4.0 kmh 30.42 in1030.1 mb 0.00 in0.0 mm 0.00 in0.0 mm 0.00 in0.0 mm
12:40 AM 49.3°F9.6°C 37.4°F3.0°C 64% 2.0 mph NE3.2 kmh NE 2.5 mph4.0 kmh 30.42 in1030.1 mb 0.00 in0.0 mm 0.00 in0.0 mm 0.00 in0.0 mm
12:45 AM 48.9°F9.4°C 37.4°F3.0°C 63% 1.6 mph NE2.6 kmh NE 2.2 mph3.5 kmh 30.42 in1030.1 mb 0.00 in0.0 mm 0.00 in0.0 mm 0.00 in0.0 mm
12:50 AM 48.7°F9.3°C 37.4°F3.0°C 64% 1.4 mph NE2.3 kmh NE 2.5 mph4.0 kmh 30.42 in1030.1 mb 0.00 in0.0 mm 0.00 in0.0 mm 0.00 in0.0 mm
12:55 AM 48.7°F9.3°C 37.4°F3.0°C 64% 1.5 mph NE2.4 kmh NE 2.5 mph4.0 kmh 30.39 in1029.1 mb 0.00 in0.0 mm 0.00 in0.0 mm 0.00 in0.0 mm
01:00 AM 48.7°F9.3°C 37.4°F3.0°C 64% 1.4 mph NE2.3 kmh NE 2.0 mph3.2 kmh 30.39 in1029.1 mb 0.00 in0.0 mm 0.00 in0.0 mm 0.00 in0.0 mm
01:05 AM 48.6°F9.2°C 37.4°F3.0°C 64% 1.4 mph NE2.3 kmh NE 2.0 mph3.2 kmh 30.39 in1029.1 mb 0.00 in0.0 mm 0.00 in0.0 mm 0.00 in0.0 mm
01:10 AM 48.2°F9.0°C 37.4°F3.0°C 64% 1.6 mph NE2.6 kmh NE 2.7 mph4.3 kmh 30.39 in1029.1 mb 0.00 in0.0 mm 0.00 in0.0 mm 0.00 in0.0 mm
01:15 AM 48.4°F9.1°C 37.4°F3.0°C 64% 1.8 mph NE2.9 kmh NE 2.7 mph4.3 kmh 30.39 in1029.1 mb 0.00 in0.0 mm 0.00 in0.0 mm 0.00 in0.0 mm
01:20 AM 48.2°F9.0°C 37.4°F3.0°C 64% 1.3 mph NE2.1 kmh NE 2.5 mph4.0 kmh 30.39 in1029.1 mb 0.00 in0.0 mm 0.00 in0.0 mm 0.00 in0.0 mm
01:25 AM 48.0°F8.9°C 37.4°F3.0°C 64% 1.1 mph NE1.8 kmh NE 2.5 mph4.0 kmh 30.39 in1029.1 mb 0.00 in0.0 mm 0.00 in0.0 mm 0.00 in0.0 mm
01:30 AM 47.7°F8.7°C 37.4°F3.0°C 64% 1.5 mph NE2.4 kmh NE 2.7 mph4.3 kmh 30.39 in1029.1 mb 0.00 in0.0 mm 0.00 in0.0 mm 0.00 in0.0 mm
01:35 AM 47.7°F8.7°C 37.4°F3.0°C 64% 1.8 mph NE2.9 kmh NE 2.9 mph4.7 kmh 30.39 in1029.1 mb 0.00 in0.0 mm 0.00 in0.0 mm 0.00 in0.0 mm
01:40 AM 47.5°F8.6°C 37.4°F3.0°C 64% 1.7 mph NNE2.7 kmh NNE 2.9 mph4.7 kmh 30.39 in1029.1 mb 0.00 in0.0 mm 0.00 in0.0 mm 0.00 in0.0 mm
01:45 AM 47.3°F8.5°C 37.4°F3.0°C 64% 1.2 mph NNE1.9 kmh NNE 2.2 mph3.5 kmh 30.39 in1029.1 mb 0.00 in0.0 mm 0.00 in0.0 mm 0.00 in0.0 mm
01:50 AM 47.1°F8.4°C 35.6°F2.0°C 64% 1.1 mph NE1.8 kmh NE 2.7 mph4.3 kmh 30.39 in1029.1 mb 0.00 in0.0 mm 0.00 in0.0 mm 0.00 in0.0 mm
01:55 AM 46.9°F8.3°C 37.4°F3.0°C 65% 1.1 mph NE1.8 kmh NE 2.7 mph4.3 kmh 30.39 in1029.1 mb 0.00 in0.0 mm 0.00 in0.0 mm 0.00 in0.0 mm
02:00 AM 46.8°F8.2°C 35.6°F2.0°C 65% 1.3 mph NE2.1 kmh NE 2.2 mph3.5 kmh 30.39 in1029.1 mb 0.00 in0.0 mm 0.00 in0.0 mm 0.00 in0.0 mm
02:05 AM 46.8°F8.2°C 35.6°F2.0°C 65% 1.4 mph NE2.3 kmh NE 2.2 mph3.5 kmh 30.39 in1029.1 mb 0.00 in0.0 mm 0.00 in0.0 mm 0.00 in0.0 mm
02:10 AM 46.4°F8.0°C 35.6°F2.0°C 65% 1.0 mph NE1.6 kmh NE 1.6 mph2.6 kmh 30.39 in1029.1 mb 0.00 in0.0 mm 0.00 in0.0 mm 0.00 in0.0 mm
02:15 AM 46.4°F8.0°C 35.6°F2.0°C 65% 1.0 mph NE1.6 kmh NE 2.9 mph4.7 kmh 30.39 in1029.1 mb 0.00 in0.0 mm 0.00 in0.0 mm 0.00 in0.0 mm
02:20 AM 46.4°F8.0°C 35.6°F2.0°C 65% 1.9 mph NE3.1 kmh NE 2.9 mph4.7 kmh 30.39 in1029.1 mb 0.00 in0.0 mm 0.00 in0.0 mm 0.00 in0.0 mm
02:25 AM 46.4°F8.0°C 35.6°F2.0°C 65% 1.9 mph NE3.1 kmh NE 2.9 mph4.7 kmh 30.39 in1029.1 mb 0.00 in0.0 mm 0.00 in0.0 mm 0.00 in0.0 mm
02:30 AM 46.2°F7.9°C 35.6°F2.0°C 65% 1.4 mph NE2.3 kmh NE 2.7 mph4.3 kmh 30.39 in1029.1 mb 0.00 in0.0 mm 0.00 in0.0 mm 0.00 in0.0 mm
02:35 AM 46.2°F7.9°C 35.6°F2.0°C 65% 1.9 mph NE3.1 kmh NE 2.9 mph4.7 kmh 30.39 in1029.1 mb 0.00 in0.0 mm 0.00 in0.0 mm 0.00 in0.0 mm
02:40 AM 46.2°F7.9°C 35.6°F2.0°C 65% 2.2 mph NE3.5 kmh NE 2.9 mph4.7 kmh 30.39 in1029.1 mb 0.00 in0.0 mm 0.00 in0.0 mm 0.00 in0.0 mm
02:45 AM 45.9°F7.7°C 35.6°F2.0°C 65% 2.0 mph NE3.2 kmh NE 2.7 mph4.3 kmh 30.39 in1029.1 mb 0.00 in0.0 mm 0.00 in0.0 mm 0.00 in0.0 mm
02:50 AM 45.9°F7.7°C 35.6°F2.0°C 65% 2.1 mph NE3.4 kmh NE 2.9 mph4.7 kmh 30.39 in1029.1 mb 0.00 in0.0 mm 0.00 in0.0 mm 0.00 in0.0 mm
02:55 AM 45.9°F7.7°C 35.6°F2.0°C 66% 1.6 mph NE2.6 kmh NE 2.9 mph4.7 kmh 30.39 in1029.1 mb 0.00 in0.0 mm 0.00 in0.0 mm 0.00 in0.0 mm
03:00 AM 45.7°F7.6°C 35.6°F2.0°C 66% 1.2 mph NE1.9 kmh NE 2.0 mph3.2 kmh 30.39 in1029.1 mb 0.00 in0.0 mm 0.00 in0.0 mm 0.00 in0.0 mm
03:05 AM 45.5°F7.5°C 35.6°F2.0°C 65% 1.2 mph NE1.9 kmh NE 2.0 mph3.2 kmh 30.39 in1029.1 mb 0.00 in0.0 mm 0.00 in0.0 mm 0.00 in0.0 mm
03:10 AM 45.3°F7.4°C 33.8°F1.0°C 66% 1.2 mph NE1.9 kmh NE 1.6 mph2.6 kmh 30.39 in1029.1 mb 0.00 in0.0 mm 0.00 in0.0 mm 0.00 in0.0 mm
03:15 AM 45.1°F7.3°C 33.8°F1.0°C 65% 1.2 mph NE1.9 kmh NE 1.6 mph2.6 kmh 30.39 in1029.1 mb 0.00 in0.0 mm 0.00 in0.0 mm 0.00 in0.0 mm
03:20 AM 45.0°F7.2°C 33.8°F1.0°C 65% 1.4 mph NE2.3 kmh NE 2.0 mph3.2 kmh 30.39 in1029.1 mb 0.00 in0.0 mm 0.00 in0.0 mm 0.00 in0.0 mm
03:25 AM 45.0°F7.2°C 33.8°F1.0°C 66% 1.7 mph NE2.7 kmh NE 2.2 mph3.5 kmh 30.36 in1028.1 mb 0.00 in0.0 mm 0.00 in0.0 mm 0.00 in0.0 mm
03:30 AM 45.0°F7.2°C 33.8°F1.0°C 66% 1.9 mph NE3.1 kmh NE 2.7 mph4.3 kmh 30.36 in1028.1 mb 0.00 in0.0 mm 0.00 in0.0 mm 0.00 in0.0 mm
03:35 AM 44.8°F7.1°C 33.8°F1.0°C 66% 1.6 mph NE2.6 kmh NE 2.7 mph4.3 kmh 30.36 in1028.1 mb 0.00 in0.0 mm 0.00 in0.0 mm 0.00 in0.0 mm
03:40 AM 44.8°F7.1°C 33.8°F1.0°C 66% 1.4 mph NE2.3 kmh NE 2.2 mph3.5 kmh 30.36 in1028.1 mb 0.00 in0.0 mm 0.00 in0.0 mm 0.00 in0.0 mm
03:45 AM 44.6°F7.0°C 33.8°F1.0°C 66% 1.6 mph NE2.6 kmh NE 2.2 mph3.5 kmh 30.36 in1028.1 mb 0.00 in0.0 mm 0.00 in0.0 mm 0.00 in0.0 mm
03:50 AM 44.6°F7.0°C 33.8°F1.0°C 66% 1.5 mph NE2.4 kmh NE 2.2 mph3.5 kmh 30.36 in1028.1 mb 0.00 in0.0 mm 0.00 in0.0 mm 0.00 in0.0 mm
03:55 AM 44.4°F6.9°C 33.8°F1.0°C 66% 1.3 mph NE2.1 kmh NE 2.2 mph3.5 kmh 30.36 in1028.1 mb 0.00 in0.0 mm 0.00 in0.0 mm 0.00 in0.0 mm
04:00 AM 44.2°F6.8°C 33.8°F1.0°C 66% 1.5 mph NE2.4 kmh NE 2.0 mph3.2 kmh 30.36 in1028.1 mb 0.00 in0.0 mm 0.00 in0.0 mm 0.00 in0.0 mm
04:05 AM 44.2°F6.8°C 33.8°F1.0°C 66% 1.4 mph NE2.3 kmh NE 2.0 mph3.2 kmh 30.36 in1028.1 mb 0.00 in0.0 mm 0.00 in0.0 mm 0.00 in0.0 mm
04:10 AM 44.1°F6.7°C 33.8°F1.0°C 66% 0.6 mph NE1.0 kmh NE 1.6 mph2.6 kmh 30.36 in1028.1 mb 0.00 in0.0 mm 0.00 in0.0 mm 0.00 in0.0 mm
04:15 AM 44.2°F6.8°C 33.8°F1.0°C 66% 0.3 mph NE0.5 kmh NE 1.1 mph1.8 kmh 30.36 in1028.1 mb 0.00 in0.0 mm 0.00 in0.0 mm 0.00 in0.0 mm
04:20 AM 44.1°F6.7°C 33.8°F1.0°C 66% 0.3 mph NE0.5 kmh NE 1.1 mph1.8 kmh 30.36 in1028.1 mb 0.00 in0.0 mm 0.00 in0.0 mm 0.00 in0.0 mm
04:25 AM 44.1°F6.7°C 33.8°F1.0°C 66% 0.1 mph NE0.2 kmh NE 1.1 mph1.8 kmh 30.36 in1028.1 mb 0.00 in0.0 mm 0.00 in0.0 mm 0.00 in0.0 mm
04:30 AM 44.1°F6.7°C 33.8°F1.0°C 67% Calm Calm -- 30.36 in1028.1 mb 0.00 in0.0 mm 0.00 in0.0 mm 0.00 in0.0 mm
04:35 AM 43.9°F6.6°C 33.8°F1.0°C 66% 0.2 mph NE0.3 kmh NE 1.3 mph2.1 kmh 30.36 in1028.1 mb 0.00 in0.0 mm 0.00 in0.0 mm 0.00 in0.0 mm
04:40 AM 43.9°F6.6°C 33.8°F1.0°C 67% 0.6 mph NE1.0 kmh NE 1.6 mph2.6 kmh 30.36 in1028.1 mb 0.00 in0.0 mm 0.00 in0.0 mm 0.00 in0.0 mm
04:45 AM 43.9°F6.6°C 33.8°F1.0°C 67% 0.9 mph NE1.4 kmh NE 2.2 mph3.5 kmh 30.36 in1028.1 mb 0.00 in0.0 mm 0.00 in0.0 mm 0.00 in0.0 mm
04:50 AM 44.1°F6.7°C 33.8°F1.0°C 67% 0.9 mph NE1.4 kmh NE 2.2 mph3.5 kmh 30.36 in1028.1 mb 0.00 in0.0 mm 0.00 in0.0 mm 0.00 in0.0 mm
04:55 AM 44.2°F6.8°C 33.8°F1.0°C 67% 1.4 mph NE2.3 kmh NE 2.2 mph3.5 kmh 30.36 in1028.1 mb 0.00 in0.0 mm 0.00 in0.0 mm 0.00 in0.0 mm
05:00 AM 44.2°F6.8°C 33.8°F1.0°C 68% 1.4 mph NE2.3 kmh NE 2.2 mph3.5 kmh 30.36 in1028.1 mb 0.00 in0.0 mm 0.00 in0.0 mm 0.00 in0.0 mm
05:05 AM 44.4°F6.9°C 35.6°F2.0°C 68% 0.8 mph NE1.3 kmh NE 1.6 mph2.6 kmh 30.36 in1028.1 mb 0.00 in0.0 mm 0.00 in0.0 mm 0.00 in0.0 mm
05:10 AM 44.4°F6.9°C 35.6°F2.0°C 68% 0.3 mph NE0.5 kmh NE 0.9 mph1.4 kmh 30.36 in1028.1 mb 0.00 in0.0 mm 0.00 in0.0 mm 0.00 in0.0 mm
05:15 AM 44.4°F6.9°C 35.6°F2.0°C 68% 0.2 mph NE0.3 kmh NE 0.9 mph1.4 kmh 30.36 in1028.1 mb 0.00 in0.0 mm 0.00 in0.0 mm 0.00 in0.0 mm
05:20 AM 44.6°F7.0°C 35.6°F2.0°C 68% 0.3 mph NE0.5 kmh NE 0.9 mph1.4 kmh 30.36 in1028.1 mb 0.00 in0.0 mm 0.00 in0.0 mm 0.00 in0.0 mm
05:25 AM 44.6°F7.0°C 35.6°F2.0°C 68% 0.5 mph NE0.8 kmh NE 1.3 mph2.1 kmh 30.36 in1028.1 mb 0.00 in0.0 mm 0.00 in0.0 mm 0.00 in0.0 mm
05:30 AM 44.6°F7.0°C 35.6°F2.0°C 68% 0.5 mph NE0.8 kmh NE 1.3 mph2.1 kmh 30.36 in1028.1 mb 0.00 in0.0 mm 0.00 in0.0 mm 0.00 in0.0 mm
05:35 AM 44.8°F7.1°C 35.6°F2.0°C 69% 0.3 mph NE0.5 kmh NE 1.3 mph2.1 kmh 30.36 in1028.1 mb 0.00 in0.0 mm 0.00 in0.0 mm 0.00 in0.0 mm
05:40 AM 45.0°F7.2°C 35.6°F2.0°C 69% 0.4 mph NNE0.6 kmh NNE 1.1 mph1.8 kmh 30.36 in1028.1 mb 0.00 in0.0 mm 0.00 in0.0 mm 0.00 in0.0 mm
05:45 AM 45.3°F7.4°C 35.6°F2.0°C 69% 0.4 mph NE0.6 kmh NE 1.1 mph1.8 kmh 30.36 in1028.1 mb 0.00 in0.0 mm 0.00 in0.0 mm 0.00 in0.0 mm
05:50 AM 45.5°F7.5°C 35.6°F2.0°C 69% 0.6 mph NE1.0 kmh NE 1.3 mph2.1 kmh 30.36 in1028.1 mb 0.00 in0.0 mm 0.00 in0.0 mm 0.00 in0.0 mm
05:55 AM 45.9°F7.7°C 35.6°F2.0°C 69% 1.0 mph NE1.6 kmh NE 1.3 mph2.1 kmh 30.36 in1028.1 mb 0.00 in0.0 mm 0.00 in0.0 mm 0.00 in0.0 mm
06:00 AM 46.0°F7.8°C 37.4°F3.0°C 70% 0.5 mph NE0.8 kmh NE 1.3 mph2.1 kmh 30.36 in1028.1 mb 0.00 in0.0 mm 0.00 in0.0 mm 0.00 in0.0 mm
06:05 AM 46.4°F8.0°C 37.4°F3.0°C 70% 0.2 mph NE0.3 kmh NE 1.1 mph1.8 kmh 30.36 in1028.1 mb 0.00 in0.0 mm 0.00 in0.0 mm 0.00 in0.0 mm
06:10 AM 46.8°F8.2°C 37.4°F3.0°C 70% 0.2 mph NE0.3 kmh NE 1.1 mph1.8 kmh 30.36 in1028.1 mb 0.00 in0.0 mm 0.00 in0.0 mm 0.00 in0.0 mm
06:15 AM 47.1°F8.4°C 37.4°F3.0°C 70% Calm Calm -- 30.36 in1028.1 mb 0.00 in0.0 mm 0.00 in0.0 mm 0.00 in0.0 mm
06:20 AM 47.3°F8.5°C 39.2°F4.0°C 70% Calm Calm -- 30.36 in1028.1 mb 0.00 in0.0 mm 0.00 in0.0 mm 0.00 in0.0 mm
06:25 AM 47.7°F8.7°C 39.2°F4.0°C 70% 0.1 mph NE0.2 kmh NE 1.1 mph1.8 kmh 30.36 in1028.1 mb 0.00 in0.0 mm 0.00 in0.0 mm 0.00 in0.0 mm
06:30 AM 48.0°F8.9°C 39.2°F4.0°C 70% 0.3 mph NE0.5 kmh NE 1.1 mph1.8 kmh 30.36 in1028.1 mb 0.00 in0.0 mm 0.00 in0.0 mm 0.00 in0.0 mm
06:35 AM 48.2°F9.0°C 39.2°F4.0°C 70% 0.1 mph NE0.2 kmh NE 1.1 mph1.8 kmh 30.36 in1028.1 mb 0.00 in0.0 mm 0.00 in0.0 mm 0.00 in0.0 mm
06:40 AM 48.6°F9.2°C 39.2°F4.0°C 70% 0.4 mph NW0.6 kmh NW 1.3 mph2.1 kmh 30.36 in1028.1 mb 0.00 in0.0 mm 0.00 in0.0 mm 0.00 in0.0 mm
06:45 AM 48.9°F9.4°C 39.2°F4.0°C 70% 0.7 mph NW1.1 kmh NW 1.6 mph2.6 kmh 30.36 in1028.1 mb 0.00 in0.0 mm 0.00 in0.0 mm 0.00 in0.0 mm
06:50 AM 49.1°F9.5°C 39.2°F4.0°C 69% 0.8 mph NNE1.3 kmh NNE 1.6 mph2.6 kmh 30.36 in1028.1 mb 0.00 in0.0 mm 0.00 in0.0 mm 0.00 in0.0 mm
06:55 AM 49.3°F9.6°C 39.2°F4.0°C 69% 0.6 mph E1.0 kmh E 1.3 mph2.1 kmh 30.36 in1028.1 mb 0.00 in0.0 mm 0.00 in0.0 mm 0.00 in0.0 mm
07:00 AM 49.6°F9.8°C 39.2°F4.0°C 68% 0.4 mph SSE0.6 kmh SSE 1.1 mph1.8 kmh 30.36 in1028.1 mb 0.00 in0.0 mm 0.00 in0.0 mm 0.00 in0.0 mm
07:05 AM 50.2°F10.1°C 41.0°F5.0°C 68% 0.6 mph SW1.0 kmh SW 2.0 mph3.2 kmh 30.36 in1028.1 mb 0.00 in0.0 mm 0.00 in0.0 mm 0.00 in0.0 mm
07:10 AM 50.5°F10.3°C 41.0°F5.0°C 68% 0.6 mph WSW1.0 kmh WSW 2.0 mph3.2 kmh 30.36 in1028.1 mb 0.00 in0.0 mm 0.00 in0.0 mm 0.00 in0.0 mm
07:15 AM 50.7°F10.4°C 41.0°F5.0°C 68% 0.3 mph WSW0.5 kmh WSW 1.3 mph2.1 kmh 30.36 in1028.1 mb 0.00 in0.0 mm 0.00 in0.0 mm 0.00 in0.0 mm
07:20 AM 51.1°F10.6°C 41.0°F5.0°C 67% 0.5 mph SW0.8 kmh SW 1.1 mph1.8 kmh 30.36 in1028.1 mb 0.00 in0.0 mm 0.00 in0.0 mm 0.00 in0.0 mm
07:25 AM 51.4°F10.8°C 41.0°F5.0°C 67% 1.0 mph SW1.6 kmh SW 2.7 mph4.3 kmh 30.36 in1028.1 mb 0.00 in0.0 mm 0.00 in0.0 mm 0.00 in0.0 mm
07:30 AM 52.0°F11.1°C 41.0°F5.0°C 66% 1.3 mph SW2.1 kmh SW 2.7 mph4.3 kmh 30.36 in1028.1 mb 0.00 in0.0 mm 0.00 in0.0 mm 0.00 in0.0 mm
07:35 AM 52.9°F11.6°C 42.8°F6.0°C 66% 0.9 mph SW1.4 kmh SW 2.2 mph3.5 kmh 30.36 in1028.1 mb 0.00 in0.0 mm 0.00 in0.0 mm 0.00 in0.0 mm
07:40 AM 53.4°F11.9°C 42.8°F6.0°C 65% 0.5 mph WSW0.8 kmh WSW 2.2 mph3.5 kmh 30.36 in1028.1 mb 0.00 in0.0 mm 0.00 in0.0 mm 0.00 in0.0 mm
07:45 AM 54.1°F12.3°C 42.8°F6.0°C 65% 0.8 mph WSW1.3 kmh WSW 2.2 mph3.5 kmh 30.36 in1028.1 mb 0.00 in0.0 mm 0.00 in0.0 mm 0.00 in0.0 mm
07:50 AM 54.9°F12.7°C 44.6°F7.0°C 65% 0.8 mph W1.3 kmh W 1.3 mph2.1 kmh 30.36 in1028.1 mb 0.00 in0.0 mm 0.00 in0.0 mm 0.00 in0.0 mm
07:55 AM 55.4°F13.0°C 44.6°F7.0°C 64% 1.2 mph WSW1.9 kmh WSW 3.4 mph5.5 kmh 30.36 in1028.1 mb 0.00 in0.0 mm 0.00 in0.0 mm 0.00 in0.0 mm
08:00 AM 55.9°F13.3°C 44.6°F7.0°C 64% 1.8 mph WSW2.9 kmh WSW 3.6 mph5.8 kmh 30.36 in1028.1 mb 0.00 in0.0 mm 0.00 in0.0 mm 0.00 in0.0 mm
08:05 AM 56.7°F13.7°C 44.6°F7.0°C 63% 1.6 mph WSW2.6 kmh WSW 3.6 mph5.8 kmh 30.36 in1028.1 mb 0.00 in0.0 mm 0.00 in0.0 mm 0.00 in0.0 mm
08:10 AM 57.0°F13.9°C 44.6°F7.0°C 63% 1.3 mph SW2.1 kmh SW 2.5 mph4.0 kmh 30.36 in1028.1 mb 0.00 in0.0 mm 0.00 in0.0 mm 0.00 in0.0 mm
08:15 AM 57.6°F14.2°C 44.6°F7.0°C 62% 1.5 mph SSW2.4 kmh SSW 2.9 mph4.7 kmh 30.36 in1028.1 mb 0.00 in0.0 mm 0.00 in0.0 mm 0.00 in0.0 mm
08:20 AM 57.7°F14.3°C 44.6°F7.0°C 61% 1.5 mph S2.4 kmh S 3.1 mph5.0 kmh 30.36 in1028.1 mb 0.00 in0.0 mm 0.00 in0.0 mm 0.00 in0.0 mm
08:25 AM 58.3°F14.6°C 44.6°F7.0°C 61% 1.5 mph S2.4 kmh S 3.1 mph5.0 kmh 30.36 in1028.1 mb 0.00 in0.0 mm 0.00 in0.0 mm 0.00 in0.0 mm
08:30 AM 59.0°F15.0°C 46.4°F8.0°C 61% 1.5 mph SW2.4 kmh SW 3.1 mph5.0 kmh 30.36 in1028.1 mb 0.00 in0.0 mm 0.00 in0.0 mm 0.00 in0.0 mm
08:35 AM 59.2°F15.1°C 46.4°F8.0°C 61% 1.6 mph SW2.6 kmh SW 2.9 mph4.7 kmh 30.36 in1028.1 mb 0.00 in0.0 mm 0.00 in0.0 mm 0.00 in0.0 mm
08:40 AM 60.4°F15.8°C 46.4°F8.0°C 61% 2.0 mph S3.2 kmh S 2.9 mph4.7 kmh 30.36 in1028.1 mb 0.00 in0.0 mm 0.00 in0.0 mm 0.00 in0.0 mm
08:45 AM 61.0°F16.1°C 48.2°F9.0°C 60% 2.2 mph S3.5 kmh S 4.0 mph6.4 kmh 30.36 in1028.1 mb 0.00 in0.0 mm 0.00 in0.0 mm 0.00 in0.0 mm
08:50 AM 61.3°F16.3°C 48.2°F9.0°C 60% 2.0 mph SSW3.2 kmh SSW 4.0 mph6.4 kmh 30.36 in1028.1 mb 0.00 in0.0 mm 0.00 in0.0 mm 0.00 in0.0 mm
08:55 AM 62.1°F16.7°C 48.2°F9.0°C 60% 2.1 mph WSW3.4 kmh WSW 3.6 mph5.8 kmh 30.36 in1028.1 mb 0.00 in0.0 mm 0.00 in0.0 mm 0.00 in0.0 mm
09:00 AM 62.4°F16.9°C 48.2°F9.0°C 59% 2.4 mph SW3.9 kmh SW 3.6 mph5.8 kmh 30.36 in1028.1 mb 0.00 in0.0 mm 0.00 in0.0 mm 0.00 in0.0 mm
09:05 AM 63.5°F17.5°C 48.2°F9.0°C 57% 2.3 mph S3.7 kmh S 3.6 mph5.8 kmh 30.36 in1028.1 mb 0.00 in0.0 mm 0.00 in0.0 mm 0.00 in0.0 mm
09:15 AM 64.8°F18.2°C 50.0°F10.0°C 57% 1.5 mph S2.4 kmh S 3.1 mph5.0 kmh 30.36 in1028.1 mb 0.00 in0.0 mm 0.00 in0.0 mm 0.00 in0.0 mm
09:20 AM 65.3°F18.5°C 50.0°F10.0°C 56% 2.4 mph SW3.9 kmh SW 4.3 mph6.9 kmh 30.36 in1028.1 mb 0.00 in0.0 mm 0.00 in0.0 mm 0.00 in0.0 mm
09:25 AM 66.2°F19.0°C 50.0°F10.0°C 55% 2.6 mph WSW4.2 kmh WSW 4.3 mph6.9 kmh 30.36 in1028.1 mb 0.00 in0.0 mm 0.00 in0.0 mm 0.00 in0.0 mm
09:30 AM 67.1°F19.5°C 50.0°F10.0°C 54% 2.3 mph WSW3.7 kmh WSW 4.3 mph6.9 kmh 30.36 in1028.1 mb 0.00 in0.0 mm 0.00 in0.0 mm 0.00 in0.0 mm
09:35 AM 67.6°F19.8°C 50.0°F10.0°C 54% 3.0 mph WSW4.8 kmh WSW 4.9 mph7.9 kmh 30.36 in1028.1 mb 0.00 in0.0 mm 0.00 in0.0 mm 0.00 in0.0 mm
09:40 AM 68.2°F20.1°C 50.0°F10.0°C 53% 3.0 mph WSW4.8 kmh WSW 4.9 mph7.9 kmh 30.36 in1028.1 mb 0.00 in0.0 mm 0.00 in0.0 mm 0.00 in0.0 mm
09:45 AM 68.5°F20.3°C 51.8°F11.0°C 53% 2.7 mph WSW4.3 kmh WSW 4.0 mph6.4 kmh 30.36 in1028.1 mb 0.00 in0.0 mm 0.00 in0.0 mm 0.00 in0.0 mm
09:50 AM 69.1°F20.6°C 51.8°F11.0°C 53% 2.7 mph SSW4.3 kmh SSW 4.3 mph6.9 kmh 30.36 in1028.1 mb 0.00 in0.0 mm 0.00 in0.0 mm 0.00 in0.0 mm
09:55 AM 70.9°F21.6°C 53.6°F12.0°C 52% 2.1 mph SSW3.4 kmh SSW 4.3 mph6.9 kmh 30.33 in1027.1 mb 0.00 in0.0 mm 0.00 in0.0 mm 0.00 in0.0 mm
10:00 AM 71.8°F22.1°C 53.6°F12.0°C 52% 1.6 mph SW2.6 kmh SW 3.8 mph6.1 kmh 30.33 in1027.1 mb 0.00 in0.0 mm 0.00 in0.0 mm 0.00 in0.0 mm
10:05 AM 72.0°F22.2°C 53.6°F12.0°C 51% 1.8 mph SSW2.9 kmh SSW 3.8 mph6.1 kmh 30.33 in1027.1 mb 0.00 in0.0 mm 0.00 in0.0 mm 0.00 in0.0 mm
10:10 AM 72.9°F22.7°C 53.6°F12.0°C 51% 1.7 mph SSW2.7 kmh SSW 3.4 mph5.5 kmh 30.33 in1027.1 mb 0.00 in0.0 mm 0.00 in0.0 mm 0.00 in0.0 mm
10:15 AM 73.4°F23.0°C 53.6°F12.0°C 49% 2.3 mph S3.7 kmh S 4.0 mph6.4 kmh 30.33 in1027.1 mb 0.00 in0.0 mm 0.00 in0.0 mm 0.00 in0.0 mm
10:20 AM 73.2°F22.9°C 53.6°F12.0°C 50% 2.6 mph S4.2 kmh S 4.0 mph6.4 kmh 30.33 in1027.1 mb 0.00 in0.0 mm 0.00 in0.0 mm 0.00 in0.0 mm
10:25 AM 75.0°F23.9°C 55.4°F13.0°C 49% 2.1 mph SSW3.4 kmh SSW 3.6 mph5.8 kmh 30.33 in1027.1 mb 0.00 in0.0 mm 0.00 in0.0 mm 0.00 in0.0 mm
10:30 AM 75.2°F24.0°C 55.4°F13.0°C 48% 2.0 mph SSW3.2 kmh SSW 3.6 mph5.8 kmh 30.33 in1027.1 mb 0.00 in0.0 mm 0.00 in0.0 mm 0.00 in0.0 mm
10:35 AM 75.9°F24.4°C 55.4°F13.0°C 48% 2.5 mph SW4.0 kmh SW 3.6 mph5.8 kmh 30.33 in1027.1 mb 0.00 in0.0 mm 0.00 in0.0 mm 0.00 in0.0 mm
10:40 AM 75.9°F24.4°C 55.4°F13.0°C 47% 2.5 mph SW4.0 kmh SW 4.3 mph6.9 kmh 30.33 in1027.1 mb 0.00 in0.0 mm 0.00 in0.0 mm 0.00 in0.0 mm
10:45 AM 77.0°F25.0°C 55.4°F13.0°C 46% 2.4 mph S3.9 kmh S 4.3 mph6.9 kmh 30.33 in1027.1 mb 0.00 in0.0 mm 0.00 in0.0 mm 0.00 in0.0 mm
10:50 AM 76.6°F24.8°C 55.4°F13.0°C 46% 2.1 mph S3.4 kmh S 3.6 mph5.8 kmh 30.33 in1027.1 mb 0.00 in0.0 mm 0.00 in0.0 mm 0.00 in0.0 mm
10:55 AM 77.7°F25.4°C 55.4°F13.0°C 44% 1.8 mph S2.9 kmh S 4.3 mph6.9 kmh 30.33 in1027.1 mb 0.00 in0.0 mm 0.00 in0.0 mm 0.00 in0.0 mm
11:00 AM 78.3°F25.7°C 55.4°F13.0°C 45% 2.2 mph SSW3.5 kmh SSW 4.3 mph6.9 kmh 30.33 in1027.1 mb 0.00 in0.0 mm 0.00 in0.0 mm 0.00 in0.0 mm
11:05 AM 79.0°F26.1°C 55.4°F13.0°C 44% 1.7 mph SW2.7 kmh SW 4.3 mph6.9 kmh 30.33 in1027.1 mb 0.00 in0.0 mm 0.00 in0.0 mm 0.00 in0.0 mm
11:10 AM 78.6°F25.9°C 55.4°F13.0°C 44% 1.6 mph SSW2.6 kmh SSW 3.8 mph6.1 kmh 30.33 in1027.1 mb 0.00 in0.0 mm 0.00 in0.0 mm 0.00 in0.0 mm
11:15 AM 79.2°F26.2°C 55.4°F13.0°C 43% 1.9 mph SW3.1 kmh SW 3.8 mph6.1 kmh 30.33 in1027.1 mb 0.00 in0.0 mm 0.00 in0.0 mm 0.00 in0.0 mm
11:20 AM 78.8°F26.0°C 55.4°F13.0°C 43% 2.3 mph S3.7 kmh S 6.5 mph10.5 kmh 30.33 in1027.1 mb 0.00 in0.0 mm 0.00 in0.0 mm 0.00 in0.0 mm
11:25 AM 79.3°F26.3°C 55.4°F13.0°C 43% 2.8 mph S4.5 kmh S 6.5 mph10.5 kmh 30.33 in1027.1 mb 0.00 in0.0 mm 0.00 in0.0 mm 0.00 in0.0 mm
11:30 AM 79.7°F26.5°C 55.4°F13.0°C 43% 2.5 mph S4.0 kmh S 4.9 mph7.9 kmh 30.33 in1027.1 mb 0.00 in0.0 mm 0.00 in0.0 mm 0.00 in0.0 mm
11:35 AM 81.0°F27.2°C 55.4°F13.0°C 41% 1.6 mph S2.6 kmh S 4.9 mph7.9 kmh 30.33 in1027.1 mb 0.00 in0.0 mm 0.00 in0.0 mm 0.00 in0.0 mm
11:40 AM 79.9°F26.6°C 55.4°F13.0°C 42% 2.3 mph SE3.7 kmh SE 6.0 mph9.7 kmh 30.33 in1027.1 mb 0.00 in0.0 mm 0.00 in0.0 mm 0.00 in0.0 mm
11:45 AM 79.5°F26.4°C 53.6°F12.0°C 41% 3.1 mph SE5.0 kmh SE 6.0 mph9.7 kmh 30.33 in1027.1 mb 0.00 in0.0 mm 0.00 in0.0 mm 0.00 in0.0 mm
11:50 AM 79.9°F26.6°C 55.4°F13.0°C 41% 2.8 mph SSE4.5 kmh SSE 4.9 mph7.9 kmh 30.33 in1027.1 mb 0.00 in0.0 mm 0.00 in0.0 mm 0.00 in0.0 mm
11:55 AM 81.3°F27.4°C 55.4°F13.0°C 40% 3.3 mph SE5.3 kmh SE 6.5 mph10.5 kmh 30.33 in1027.1 mb 0.00 in0.0 mm 0.00 in0.0 mm 0.00 in0.0 mm
12:00 PM 80.1°F26.7°C 55.4°F13.0°C 41% 3.0 mph ESE4.8 kmh ESE 6.5 mph10.5 kmh 30.33 in1027.1 mb 0.00 in0.0 mm 0.00 in0.0 mm 0.00 in0.0 mm
12:05 PM 78.6°F25.9°C 53.6°F12.0°C 40% 3.5 mph SSE5.6 kmh SSE 6.5 mph10.5 kmh 30.33 in1027.1 mb 0.00 in0.0 mm 0.00 in0.0 mm 0.00 in0.0 mm
12:10 PM 78.6°F25.9°C 53.6°F12.0°C 40% 3.0 mph S4.8 kmh S 6.0 mph9.7 kmh 30.33 in1027.1 mb 0.00 in0.0 mm 0.00 in0.0 mm 0.00 in0.0 mm
12:15 PM 79.5°F26.4°C 53.6°F12.0°C 40% 2.2 mph SSE3.5 kmh SSE 4.3 mph6.9 kmh 30.33 in1027.1 mb 0.00 in0.0 mm 0.00 in0.0 mm 0.00 in0.0 mm
12:20 PM 79.7°F26.5°C 53.6°F12.0°C 40% 3.1 mph SE5.0 kmh SE 7.6 mph12.2 kmh 30.33 in1027.1 mb 0.00 in0.0 mm 0.00 in0.0 mm 0.00 in0.0 mm
12:25 PM 78.8°F26.0°C 51.8°F11.0°C 39% 3.8 mph SSE6.1 kmh SSE 7.6 mph12.2 kmh 30.30 in1026.1 mb 0.00 in0.0 mm 0.00 in0.0 mm 0.00 in0.0 mm
12:30 PM 79.2°F26.2°C 53.6°F12.0°C 39% 3.5 mph S5.6 kmh S 10.1 mph16.3 kmh 30.30 in1026.1 mb 0.00 in0.0 mm 0.00 in0.0 mm 0.00 in0.0 mm
12:35 PM 77.9°F25.5°C 50.0°F10.0°C 38% 3.8 mph S6.1 kmh S 10.1 mph16.3 kmh 30.30 in1026.1 mb 0.00 in0.0 mm 0.00 in0.0 mm 0.00 in0.0 mm
12:40 PM 77.9°F25.5°C 50.0°F10.0°C 38% 4.4 mph SSE7.1 kmh SSE 6.0 mph9.7 kmh 30.30 in1026.1 mb 0.00 in0.0 mm 0.00 in0.0 mm 0.00 in0.0 mm
12:45 PM 77.9°F25.5°C 50.0°F10.0°C 38% 4.2 mph SSE6.8 kmh SSE 7.2 mph11.6 kmh 30.30 in1026.1 mb 0.00 in0.0 mm 0.00 in0.0 mm 0.00 in0.0 mm
12:50 PM 77.0°F25.0°C 48.2°F9.0°C 37% 4.3 mph SE6.9 kmh SE 7.2 mph11.6 kmh 30.30 in1026.1 mb 0.00 in0.0 mm 0.00 in0.0 mm 0.00 in0.0 mm
12:55 PM 76.3°F24.6°C 48.2°F9.0°C 38% 6.3 mph SE10.1 kmh SE 9.6 mph15.4 kmh 30.30 in1026.1 mb 0.00 in0.0 mm 0.00 in0.0 mm 0.00 in0.0 mm
01:00 PM 76.6°F24.8°C 48.2°F9.0°C 38% 7.0 mph SE11.3 kmh SE 9.6 mph15.4 kmh 30.30 in1026.1 mb 0.00 in0.0 mm 0.00 in0.0 mm 0.00 in0.0 mm
01:05 PM 77.0°F25.0°C 48.2°F9.0°C 37% 6.1 mph SE9.8 kmh SE 9.6 mph15.4 kmh 30.30 in1026.1 mb 0.00 in0.0 mm 0.00 in0.0 mm 0.00 in0.0 mm
01:10 PM 77.2°F25.1°C 48.2°F9.0°C 37% 6.3 mph SE10.1 kmh SE 8.1 mph13.0 kmh 30.30 in1026.1 mb 0.00 in0.0 mm 0.00 in0.0 mm 0.00 in0.0 mm
01:15 PM 76.8°F24.9°C 48.2°F9.0°C 37% 6.6 mph SE10.6 kmh SE 12.3 mph19.8 kmh 30.30 in1026.1 mb 0.00 in0.0 mm 0.00 in0.0 mm 0.00 in0.0 mm
01:20 PM 76.5°F24.7°C 48.2°F9.0°C 37% 7.0 mph SE11.3 kmh SE 12.3 mph19.8 kmh 30.30 in1026.1 mb 0.00 in0.0 mm 0.00 in0.0 mm 0.00 in0.0 mm
01:25 PM 77.4°F25.2°C 48.2°F9.0°C 36% 5.4 mph SE8.7 kmh SE 9.8 mph15.8 kmh 30.30 in1026.1 mb 0.00 in0.0 mm 0.00 in0.0 mm 0.00 in0.0 mm
01:30 PM 77.2°F25.1°C 48.2°F9.0°C 36% 4.9 mph SE7.9 kmh SE 8.5 mph13.7 kmh 30.30 in1026.1 mb 0.00 in0.0 mm 0.00 in0.0 mm 0.00 in0.0 mm
01:35 PM 77.5°F25.3°C 48.2°F9.0°C 36% 5.6 mph SE9.0 kmh SE 8.5 mph13.7 kmh 30.30 in1026.1 mb 0.00 in0.0 mm 0.00 in0.0 mm 0.00 in0.0 mm
01:40 PM 77.2°F25.1°C 48.2°F9.0°C 36% 4.9 mph SSE7.9 kmh SSE 8.5 mph13.7 kmh 30.30 in1026.1 mb 0.00 in0.0 mm 0.00 in0.0 mm 0.00 in0.0 mm
01:45 PM 76.8°F24.9°C 48.2°F9.0°C 36% 5.5 mph SE8.9 kmh SE 8.1 mph13.0 kmh 30.30 in1026.1 mb 0.00 in0.0 mm 0.00 in0.0 mm 0.00 in0.0 mm
01:50 PM 77.4°F25.2°C 48.2°F9.0°C 36% 5.2 mph SE8.4 kmh SE 8.1 mph13.0 kmh 30.30 in1026.1 mb 0.00 in0.0 mm 0.00 in0.0 mm 0.00 in0.0 mm
01:55 PM 77.2°F25.1°C 48.2°F9.0°C 36% 4.8 mph SSE7.7 kmh SSE 8.9 mph14.3 kmh 30.30 in1026.1 mb 0.00 in0.0 mm 0.00 in0.0 mm 0.00 in0.0 mm
02:00 PM 77.0°F25.0°C 48.2°F9.0°C 37% 5.6 mph SSE9.0 kmh SSE 8.9 mph14.3 kmh 30.30 in1026.1 mb 0.00 in0.0 mm 0.00 in0.0 mm 0.00 in0.0 mm
02:05 PM 77.0°F25.0°C 48.2°F9.0°C 37% 5.4 mph SE8.7 kmh SE 8.7 mph14.0 kmh 30.30 in1026.1 mb 0.00 in0.0 mm 0.00 in0.0 mm 0.00 in0.0 mm
02:10 PM 76.5°F24.7°C 48.2°F9.0°C 38% 5.3 mph SE8.5 kmh SE 8.1 mph13.0 kmh 30.30 in1026.1 mb 0.00 in0.0 mm 0.00 in0.0 mm 0.00 in0.0 mm
02:15 PM 76.6°F24.8°C 48.2°F9.0°C 38% 5.5 mph SE8.9 kmh SE 8.1 mph13.0 kmh 30.30 in1026.1 mb 0.00 in0.0 mm 0.00 in0.0 mm 0.00 in0.0 mm
02:20 PM 75.7°F24.3°C 48.2°F9.0°C 37% 6.0 mph SE9.7 kmh SE 8.5 mph13.7 kmh 30.30 in1026.1 mb 0.00 in0.0 mm 0.00 in0.0 mm 0.00 in0.0 mm
02:25 PM 75.2°F24.0°C 48.2°F9.0°C 37% 5.7 mph SSE9.2 kmh SSE 8.5 mph13.7 kmh 30.30 in1026.1 mb 0.00 in0.0 mm 0.00 in0.0 mm 0.00 in0.0 mm
02:30 PM 77.0°F25.0°C 48.2°F9.0°C 37% 4.9 mph SE7.9 kmh SE 6.5 mph10.5 kmh 30.30 in1026.1 mb 0.00 in0.0 mm 0.00 in0.0 mm 0.00 in0.0 mm
02:35 PM 77.4°F25.2°C 50.0°F10.0°C 37% 5.5 mph SE8.9 kmh SE 8.7 mph14.0 kmh 30.30 in1026.1 mb 0.00 in0.0 mm 0.00 in0.0 mm 0.00 in0.0 mm
02:40 PM 77.4°F25.2°C 50.0°F10.0°C 37% 5.6 mph SE9.0 kmh SE 8.7 mph14.0 kmh 30.30 in1026.1 mb 0.00 in0.0 mm 0.00 in0.0 mm 0.00 in0.0 mm
02:45 PM 77.2°F25.1°C 50.0°F10.0°C 38% 5.7 mph SE9.2 kmh SE 8.7 mph14.0 kmh 30.30 in1026.1 mb 0.00 in0.0 mm 0.00 in0.0 mm 0.00 in0.0 mm
02:50 PM 77.0°F25.0°C 48.2°F9.0°C 37% 6.1 mph SE9.8 kmh SE 8.7 mph14.0 kmh 30.30 in1026.1 mb 0.00 in0.0 mm 0.00 in0.0 mm 0.00 in0.0 mm
02:55 PM 77.0°F25.0°C 50.0°F10.0°C 38% 5.4 mph SE8.7 kmh SE 8.5 mph13.7 kmh 30.27 in1025.1 mb 0.00 in0.0 mm 0.00 in0.0 mm 0.00 in0.0 mm
03:00 PM 76.5°F24.7°C 48.2°F9.0°C 38% 5.4 mph SE8.7 kmh SE 8.5 mph13.7 kmh 30.27 in1025.1 mb 0.00 in0.0 mm 0.00 in0.0 mm 0.00 in0.0 mm
03:05 PM 76.6°F24.8°C 50.0°F10.0°C 39% 5.6 mph SE9.0 kmh SE 8.5 mph13.7 kmh 30.27 in1025.1 mb 0.00 in0.0 mm 0.00 in0.0 mm 0.00 in0.0 mm
03:10 PM 76.6°F24.8°C 48.2°F9.0°C 38% 5.3 mph SE8.5 kmh SE 8.5 mph13.7 kmh 30.27 in1025.1 mb 0.00 in0.0 mm 0.00 in0.0 mm 0.00 in0.0 mm
03:15 PM 76.6°F24.8°C 50.0°F10.0°C 39% 5.9 mph ESE9.5 kmh ESE 9.8 mph15.8 kmh 30.27 in1025.1 mb 0.00 in0.0 mm 0.00 in0.0 mm 0.00 in0.0 mm
03:20 PM 75.9°F24.4°C 50.0°F10.0°C 39% 5.8 mph SE9.3 kmh SE 9.8 mph15.8 kmh 30.27 in1025.1 mb 0.00 in0.0 mm 0.00 in0.0 mm 0.00 in0.0 mm
03:25 PM 76.1°F24.5°C 50.0°F10.0°C 39% 5.6 mph SE9.0 kmh SE 8.7 mph14.0 kmh 30.30 in1026.1 mb 0.00 in0.0 mm 0.00 in0.0 mm 0.00 in0.0 mm
03:30 PM 76.3°F24.6°C 50.0°F10.0°C 39% 5.2 mph SE8.4 kmh SE 8.7 mph14.0 kmh 30.30 in1026.1 mb 0.00 in0.0 mm 0.00 in0.0 mm 0.00 in0.0 mm
03:35 PM 75.4°F24.1°C 48.2°F9.0°C 39% 4.9 mph SE7.9 kmh SE 10.5 mph16.9 kmh 30.30 in1026.1 mb 0.00 in0.0 mm 0.00 in0.0 mm 0.00 in0.0 mm
03:40 PM 75.4°F24.1°C 48.2°F9.0°C 39% 4.8 mph SE7.7 kmh SE 10.5 mph16.9 kmh 30.27 in1025.1 mb 0.00 in0.0 mm 0.00 in0.0 mm 0.00 in0.0 mm
03:45 PM 75.0°F23.9°C 48.2°F9.0°C 39% 4.0 mph SE6.4 kmh SE 6.5 mph10.5 kmh 30.27 in1025.1 mb 0.00 in0.0 mm 0.00 in0.0 mm 0.00 in0.0 mm
03:50 PM 73.6°F23.1°C 48.2°F9.0°C 39% 5.1 mph SE8.2 kmh SE 7.6 mph12.2 kmh 30.27 in1025.1 mb 0.00 in0.0 mm 0.00 in0.0 mm 0.00 in0.0 mm
03:55 PM 72.7°F22.6°C 48.2°F9.0°C 40% 7.2 mph SE11.6 kmh SE 13.0 mph20.9 kmh 30.27 in1025.1 mb 0.00 in0.0 mm 0.00 in0.0 mm 0.00 in0.0 mm
04:00 PM 72.1°F22.3°C 46.4°F8.0°C 40% 6.8 mph SE10.9 kmh SE 13.0 mph20.9 kmh 30.27 in1025.1 mb 0.00 in0.0 mm 0.00 in0.0 mm 0.00 in0.0 mm
04:05 PM 71.6°F22.0°C 46.4°F8.0°C 40% 6.8 mph SE10.9 kmh SE 13.0 mph20.9 kmh 30.27 in1025.1 mb 0.00 in0.0 mm 0.00 in0.0 mm 0.00 in0.0 mm
04:10 PM 70.5°F21.4°C 44.6°F7.0°C 40% 7.2 mph SSE11.6 kmh SSE 10.7 mph17.2 kmh 30.27 in1025.1 mb 0.00 in0.0 mm 0.00 in0.0 mm 0.00 in0.0 mm
04:15 PM 70.0°F21.1°C 44.6°F7.0°C 40% 7.3 mph SSE11.7 kmh SSE 10.7 mph17.2 kmh 30.27 in1025.1 mb 0.00 in0.0 mm 0.00 in0.0 mm 0.00 in0.0 mm
04:20 PM 69.3°F20.7°C 44.6°F7.0°C 40% 6.9 mph SSE11.1 kmh SSE 8.7 mph14.0 kmh 30.27 in1025.1 mb 0.00 in0.0 mm 0.00 in0.0 mm 0.00 in0.0 mm
04:25 PM 68.5°F20.3°C 42.8°F6.0°C 40% 6.7 mph SE10.8 kmh SE 10.7 mph17.2 kmh 30.27 in1025.1 mb 0.00 in0.0 mm 0.00 in0.0 mm 0.00 in0.0 mm
04:30 PM 68.0°F20.0°C 42.8°F6.0°C 40% 7.3 mph SE11.7 kmh SE 12.5 mph20.1 kmh 30.27 in1025.1 mb 0.00 in0.0 mm 0.00 in0.0 mm 0.00 in0.0 mm
04:35 PM 67.5°F19.7°C 42.8°F6.0°C 40% 6.8 mph SE10.9 kmh SE 12.5 mph20.1 kmh 30.27 in1025.1 mb 0.00 in0.0 mm 0.00 in0.0 mm 0.00 in0.0 mm
04:40 PM 67.3°F19.6°C 42.8°F6.0°C 40% 5.4 mph SE8.7 kmh SE 7.4 mph11.9 kmh 30.30 in1026.1 mb 0.00 in0.0 mm 0.00 in0.0 mm 0.00 in0.0 mm
04:45 PM 67.1°F19.5°C 42.8°F6.0°C 41% 4.9 mph SE7.9 kmh SE 7.4 mph11.9 kmh 30.30 in1026.1 mb 0.00 in0.0 mm 0.00 in0.0 mm 0.00 in0.0 mm
04:50 PM 66.9°F19.4°C 42.8°F6.0°C 41% 4.3 mph SE6.9 kmh SE 7.2 mph11.6 kmh 30.30 in1026.1 mb 0.00 in0.0 mm 0.00 in0.0 mm 0.00 in0.0 mm
04:55 PM 66.4°F19.1°C 42.8°F6.0°C 41% 4.9 mph SE7.9 kmh SE 8.5 mph13.7 kmh 30.30 in1026.1 mb 0.00 in0.0 mm 0.00 in0.0 mm 0.00 in0.0 mm
05:00 PM 65.5°F18.6°C 41.0°F5.0°C 41% 5.7 mph SE9.2 kmh SE 8.5 mph13.7 kmh 30.30 in1026.1 mb 0.00 in0.0 mm 0.00 in0.0 mm 0.00 in0.0 mm
05:05 PM 65.1°F18.4°C 41.0°F5.0°C 41% 5.6 mph SE9.0 kmh SE 6.7 mph10.8 kmh 30.30 in1026.1 mb 0.00 in0.0 mm 0.00 in0.0 mm 0.00 in0.0 mm
05:10 PM 64.9°F18.3°C 41.0°F5.0°C 41% 5.3 mph SE8.5 kmh SE 6.5 mph10.5 kmh 30.27 in1025.1 mb 0.00 in0.0 mm 0.00 in0.0 mm 0.00 in0.0 mm
05:15 PM 64.4°F18.0°C 41.0°F5.0°C 41% 5.4 mph SE8.7 kmh SE 8.1 mph13.0 kmh 30.27 in1025.1 mb 0.00 in0.0 mm 0.00 in0.0 mm 0.00 in0.0 mm
05:20 PM 63.9°F17.7°C 41.0°F5.0°C 42% 5.7 mph SE9.2 kmh SE 8.1 mph13.0 kmh 30.27 in1025.1 mb 0.00 in0.0 mm 0.00 in0.0 mm 0.00 in0.0 mm
05:25 PM 63.5°F17.5°C 39.2°F4.0°C 41% 6.4 mph SSE10.3 kmh SSE 12.1 mph19.5 kmh 30.30 in1026.1 mb 0.00 in0.0 mm 0.00 in0.0 mm 0.00 in0.0 mm
05:30 PM 63.1°F17.3°C 39.2°F4.0°C 41% 6.7 mph SSE10.8 kmh SSE 12.1 mph19.5 kmh 30.30 in1026.1 mb 0.00 in0.0 mm 0.00 in0.0 mm 0.00 in0.0 mm
05:35 PM 63.3°F17.4°C 39.2°F4.0°C 41% 5.1 mph SE8.2 kmh SE 10.5 mph16.9 kmh 30.30 in1026.1 mb 0.00 in0.0 mm 0.00 in0.0 mm 0.00 in0.0 mm
05:40 PM 63.1°F17.3°C 39.2°F4.0°C 41% 4.8 mph SE7.7 kmh SE 10.5 mph16.9 kmh 30.30 in1026.1 mb 0.00 in0.0 mm 0.00 in0.0 mm 0.00 in0.0 mm
05:45 PM 62.6°F17.0°C 39.2°F4.0°C 41% 5.1 mph SE8.2 kmh SE 7.8 mph12.6 kmh 30.30 in1026.1 mb 0.00 in0.0 mm 0.00 in0.0 mm 0.00 in0.0 mm
05:50 PM 62.8°F17.1°C 39.2°F4.0°C 41% 5.6 mph SE9.0 kmh SE 7.8 mph12.6 kmh 30.30 in1026.1 mb 0.00 in0.0 mm 0.00 in0.0 mm 0.00 in0.0 mm
05:55 PM 62.8°F17.1°C 39.2°F4.0°C 41% 5.1 mph ESE8.2 kmh ESE 7.4 mph11.9 kmh 30.30 in1026.1 mb 0.00 in0.0 mm 0.00 in0.0 mm 0.00 in0.0 mm
06:00 PM 63.0°F17.2°C 39.2°F4.0°C 41% 4.4 mph ESE7.1 kmh ESE 7.4 mph11.9 kmh 30.30 in1026.1 mb 0.00 in0.0 mm 0.00 in0.0 mm 0.00 in0.0 mm
06:05 PM 62.6°F17.0°C 39.2°F4.0°C 41% 4.9 mph SE7.9 kmh SE 7.4 mph11.9 kmh 30.30 in1026.1 mb 0.00 in0.0 mm 0.00 in0.0 mm 0.00 in0.0 mm
06:10 PM 62.2°F16.8°C 37.4°F3.0°C 41% 4.6 mph SE7.4 kmh SE 7.4 mph11.9 kmh 30.30 in1026.1 mb 0.00 in0.0 mm 0.00 in0.0 mm 0.00 in0.0 mm
06:15 PM 62.1°F16.7°C 37.4°F3.0°C 41% 3.8 mph SE6.1 kmh SE 6.0 mph9.7 kmh 30.30 in1026.1 mb 0.00 in0.0 mm 0.00 in0.0 mm 0.00 in0.0 mm
06:20 PM 61.7°F16.5°C 37.4°F3.0°C 41% 3.9 mph SE6.3 kmh SE 6.0 mph9.7 kmh 30.30 in1026.1 mb 0.00 in0.0 mm 0.00 in0.0 mm 0.00 in0.0 mm
06:25 PM 61.2°F16.2°C 37.4°F3.0°C 41% 3.9 mph SE6.3 kmh SE 7.6 mph12.2 kmh 30.30 in1026.1 mb 0.00 in0.0 mm 0.00 in0.0 mm 0.00 in0.0 mm
06:30 PM 60.3°F15.7°C 35.6°F2.0°C 40% 4.2 mph SE6.8 kmh SE 8.7 mph14.0 kmh 30.30 in1026.1 mb 0.00 in0.0 mm 0.00 in0.0 mm 0.00 in0.0 mm
06:35 PM 59.9°F15.5°C 35.6°F2.0°C 40% 4.6 mph SE7.4 kmh SE 8.7 mph14.0 kmh 30.30 in1026.1 mb 0.00 in0.0 mm 0.00 in0.0 mm 0.00 in0.0 mm
06:40 PM 59.2°F15.1°C 35.6°F2.0°C 40% 5.5 mph SE8.9 kmh SE 7.6 mph12.2 kmh 30.30 in1026.1 mb 0.00 in0.0 mm 0.00 in0.0 mm 0.00 in0.0 mm
06:45 PM 58.6°F14.8°C 33.8°F1.0°C 39% 4.7 mph ESE7.6 kmh ESE 7.6 mph12.2 kmh 30.30 in1026.1 mb 0.00 in0.0 mm 0.00 in0.0 mm 0.00 in0.0 mm
06:50 PM 58.1°F14.5°C 33.8°F1.0°C 39% 4.1 mph SE6.6 kmh SE 5.8 mph9.3 kmh 30.30 in1026.1 mb 0.00 in0.0 mm 0.00 in0.0 mm 0.00 in0.0 mm
06:55 PM 57.9°F14.4°C 33.8°F1.0°C 39% 3.7 mph SE6.0 kmh SE 6.3 mph10.1 kmh 30.30 in1026.1 mb 0.00 in0.0 mm 0.00 in0.0 mm 0.00 in0.0 mm
07:00 PM 57.4°F14.1°C 33.8°F1.0°C 39% 2.9 mph ESE4.7 kmh ESE 6.3 mph10.1 kmh 30.30 in1026.1 mb 0.00 in0.0 mm 0.00 in0.0 mm 0.00 in0.0 mm
07:05 PM 57.2°F14.0°C 33.8°F1.0°C 39% 3.1 mph SE5.0 kmh SE 6.3 mph10.1 kmh 30.30 in1026.1 mb 0.00 in0.0 mm 0.00 in0.0 mm 0.00 in0.0 mm
07:10 PM 56.8°F13.8°C 32.0°F0.0°C 39% 3.3 mph SE5.3 kmh SE 4.9 mph7.9 kmh 30.30 in1026.1 mb 0.00 in0.0 mm 0.00 in0.0 mm 0.00 in0.0 mm
07:15 PM 56.5°F13.6°C 32.0°F0.0°C 39% 3.0 mph E4.8 kmh E 3.8 mph6.1 kmh 30.30 in1026.1 mb 0.00 in0.0 mm 0.00 in0.0 mm 0.00 in0.0 mm
07:20 PM 56.1°F13.4°C 32.0°F0.0°C 39% 2.4 mph E3.9 kmh E 3.8 mph6.1 kmh 30.30 in1026.1 mb 0.00 in0.0 mm 0.00 in0.0 mm 0.00 in0.0 mm
07:25 PM 55.8°F13.2°C 32.0°F0.0°C 39% 2.4 mph SE3.9 kmh SE 4.9 mph7.9 kmh 30.30 in1026.1 mb 0.00 in0.0 mm 0.00 in0.0 mm 0.00 in0.0 mm
07:30 PM 55.4°F13.0°C 32.0°F0.0°C 40% 2.6 mph SE4.2 kmh SE 4.9 mph7.9 kmh 30.30 in1026.1 mb 0.00 in0.0 mm 0.00 in0.0 mm 0.00 in0.0 mm
07:35 PM 55.0°F12.8°C 32.0°F0.0°C 40% 2.8 mph E4.5 kmh E 4.0 mph6.4 kmh 30.30 in1026.1 mb 0.00 in0.0 mm 0.00 in0.0 mm 0.00 in0.0 mm
07:40 PM 54.7°F12.6°C 32.0°F0.0°C 41% 2.7 mph E4.3 kmh E 3.8 mph6.1 kmh 30.30 in1026.1 mb 0.00 in0.0 mm 0.00 in0.0 mm 0.00 in0.0 mm
07:45 PM 54.3°F12.4°C 32.0°F0.0°C 41% 2.5 mph E4.0 kmh E 3.8 mph6.1 kmh 30.30 in1026.1 mb 0.00 in0.0 mm 0.00 in0.0 mm 0.00 in0.0 mm
07:50 PM 54.1°F12.3°C 32.0°F0.0°C 42% 2.2 mph E3.5 kmh E 3.8 mph6.1 kmh 30.30 in1026.1 mb 0.00 in0.0 mm 0.00 in0.0 mm 0.00 in0.0 mm
07:55 PM 53.8°F12.1°C 32.0°F0.0°C 43% 1.8 mph ESE2.9 kmh ESE 3.6 mph5.8 kmh 30.27 in1025.1 mb 0.00 in0.0 mm 0.00 in0.0 mm 0.00 in0.0 mm
08:00 PM 53.4°F11.9°C 32.0°F0.0°C 44% 1.7 mph ESE2.7 kmh ESE 3.4 mph5.5 kmh 30.27 in1025.1 mb 0.00 in0.0 mm 0.00 in0.0 mm 0.00 in0.0 mm
08:05 PM 53.2°F11.8°C 32.0°F0.0°C 45% 1.9 mph ESE3.1 kmh ESE 3.4 mph5.5 kmh 30.27 in1025.1 mb 0.00 in0.0 mm 0.00 in0.0 mm 0.00 in0.0 mm
08:10 PM 52.9°F11.6°C 32.0°F0.0°C 45% 1.8 mph E2.9 kmh E 3.1 mph5.0 kmh 30.27 in1025.1 mb 0.00 in0.0 mm 0.00 in0.0 mm 0.00 in0.0 mm
08:15 PM 52.5°F11.4°C 32.0°F0.0°C 46% 1.9 mph E3.1 kmh E 2.9 mph4.7 kmh 30.27 in1025.1 mb 0.00 in0.0 mm 0.00 in0.0 mm 0.00 in0.0 mm
08:20 PM 52.3°F11.3°C 33.8°F1.0°C 47% 2.4 mph E3.9 kmh E 3.4 mph5.5 kmh 30.27 in1025.1 mb 0.00 in0.0 mm 0.00 in0.0 mm 0.00 in0.0 mm
08:25 PM 52.0°F11.1°C 33.8°F1.0°C 48% 2.3 mph E3.7 kmh E 3.4 mph5.5 kmh 30.27 in1025.1 mb 0.00 in0.0 mm 0.00 in0.0 mm 0.00 in0.0 mm
08:30 PM 51.8°F11.0°C 33.8°F1.0°C 48% 2.4 mph E3.9 kmh E 4.0 mph6.4 kmh 30.27 in1025.1 mb 0.00 in0.0 mm 0.00 in0.0 mm 0.00 in0.0 mm
08:35 PM 51.4°F10.8°C 33.8°F1.0°C 49% 2.7 mph E4.3 kmh E 4.0 mph6.4 kmh 30.27 in1025.1 mb 0.00 in0.0 mm 0.00 in0.0 mm 0.00 in0.0 mm
08:40 PM 51.1°F10.6°C 33.8°F1.0°C 50% 3.0 mph E4.8 kmh E 4.0 mph6.4 kmh 30.27 in1025.1 mb 0.00 in0.0 mm 0.00 in0.0 mm 0.00 in0.0 mm
08:45 PM 51.1°F10.6°C 33.8°F1.0°C 50% 3.1 mph E5.0 kmh E 4.5 mph7.2 kmh 30.27 in1025.1 mb 0.00 in0.0 mm 0.00 in0.0 mm 0.00 in0.0 mm
08:50 PM 50.5°F10.3°C 33.8°F1.0°C 50% 2.9 mph E4.7 kmh E 4.5 mph7.2 kmh 30.27 in1025.1 mb 0.00 in0.0 mm 0.00 in0.0 mm 0.00 in0.0 mm
08:55 PM 50.4°F10.2°C 33.8°F1.0°C 51% 2.6 mph E4.2 kmh E 3.8 mph6.1 kmh 30.27 in1025.1 mb 0.00 in0.0 mm 0.00 in0.0 mm 0.00 in0.0 mm
09:00 PM 50.2°F10.1°C 33.8°F1.0°C 51% 2.6 mph E4.2 kmh E 4.0 mph6.4 kmh 30.27 in1025.1 mb 0.00 in0.0 mm 0.00 in0.0 mm 0.00 in0.0 mm
09:05 PM 50.0°F10.0°C 33.8°F1.0°C 52% 2.9 mph E4.7 kmh E 4.0 mph6.4 kmh 30.27 in1025.1 mb 0.00 in0.0 mm 0.00 in0.0 mm 0.00 in0.0 mm
09:10 PM 49.8°F9.9°C 33.8°F1.0°C 52% 2.5 mph E4.0 kmh E 3.6 mph5.8 kmh 30.27 in1025.1 mb 0.00 in0.0 mm 0.00 in0.0 mm 0.00 in0.0 mm
09:15 PM 49.5°F9.7°C 33.8°F1.0°C 52% 2.3 mph E3.7 kmh E 3.1 mph5.0 kmh 30.27 in1025.1 mb 0.00 in0.0 mm 0.00 in0.0 mm 0.00 in0.0 mm
09:20 PM 49.5°F9.7°C 33.8°F1.0°C 52% 2.2 mph E3.5 kmh E 3.1 mph5.0 kmh 30.27 in1025.1 mb 0.00 in0.0 mm 0.00 in0.0 mm 0.00 in0.0 mm
09:25 PM 49.1°F9.5°C 33.8°F1.0°C 52% 2.0 mph E3.2 kmh E 3.1 mph5.0 kmh 30.27 in1025.1 mb 0.00 in0.0 mm 0.00 in0.0 mm 0.00 in0.0 mm
09:30 PM 48.7°F9.3°C 32.0°F0.0°C 52% 1.6 mph E2.6 kmh E 3.1 mph5.0 kmh 30.27 in1025.1 mb 0.00 in0.0 mm 0.00 in0.0 mm 0.00 in0.0 mm
09:35 PM 48.4°F9.1°C 32.0°F0.0°C 53% 1.2 mph ENE1.9 kmh ENE 2.9 mph4.7 kmh 30.27 in1025.1 mb 0.00 in0.0 mm 0.00 in0.0 mm 0.00 in0.0 mm
09:40 PM 48.2°F9.0°C 32.0°F0.0°C 53% 1.3 mph NE2.1 kmh NE 2.9 mph4.7 kmh 30.27 in1025.1 mb 0.00 in0.0 mm 0.00 in0.0 mm 0.00 in0.0 mm
09:45 PM 48.0°F8.9°C 32.0°F0.0°C 53% 1.6 mph NE2.6 kmh NE 2.7 mph4.3 kmh 30.27 in1025.1 mb 0.00 in0.0 mm 0.00 in0.0 mm 0.00 in0.0 mm
09:50 PM 47.8°F8.8°C 32.0°F0.0°C 53% 1.7 mph NE2.7 kmh NE 2.7 mph4.3 kmh 30.27 in1025.1 mb 0.00 in0.0 mm 0.00 in0.0 mm 0.00 in0.0 mm
09:55 PM 47.7°F8.7°C 32.0°F0.0°C 54% 1.9 mph NE3.1 kmh NE 3.1 mph5.0 kmh 30.24 in1024.0 mb 0.00 in0.0 mm 0.00 in0.0 mm 0.00 in0.0 mm
10:00 PM 47.7°F8.7°C 32.0°F0.0°C 54% 2.4 mph NE3.9 kmh NE 3.1 mph5.0 kmh 30.24 in1024.0 mb 0.00 in0.0 mm 0.00 in0.0 mm 0.00 in0.0 mm
10:05 PM 47.5°F8.6°C 32.0°F0.0°C 54% 2.2 mph NE3.5 kmh NE 3.1 mph5.0 kmh 30.24 in1024.0 mb 0.00 in0.0 mm 0.00 in0.0 mm 0.00 in0.0 mm
10:10 PM 47.1°F8.4°C 32.0°F0.0°C 54% 2.0 mph NE3.2 kmh NE 3.1 mph5.0 kmh 30.24 in1024.0 mb 0.00 in0.0 mm 0.00 in0.0 mm 0.00 in0.0 mm
10:15 PM 46.8°F8.2°C 32.0°F0.0°C 54% 2.1 mph NE3.4 kmh NE 3.1 mph5.0 kmh 30.24 in1024.0 mb 0.00 in0.0 mm 0.00 in0.0 mm 0.00 in0.0 mm
10:20 PM 46.8°F8.2°C 32.0°F0.0°C 55% 2.2 mph NE3.5 kmh NE 3.6 mph5.8 kmh 30.24 in1024.0 mb 0.00 in0.0 mm 0.00 in0.0 mm 0.00 in0.0 mm
10:25 PM 46.8°F8.2°C 32.0°F0.0°C 55% 1.8 mph NE2.9 kmh NE 3.6 mph5.8 kmh 30.24 in1024.0 mb 0.00 in0.0 mm 0.00 in0.0 mm 0.00 in0.0 mm
10:30 PM 46.4°F8.0°C 32.0°F0.0°C 55% 1.1 mph NE1.8 kmh NE 2.0 mph3.2 kmh 30.24 in1024.0 mb 0.00 in0.0 mm 0.00 in0.0 mm 0.00 in0.0 mm
10:35 PM 46.2°F7.9°C 32.0°F0.0°C 56% 0.7 mph NE1.1 kmh NE 2.0 mph3.2 kmh 30.24 in1024.0 mb 0.00 in0.0 mm 0.00 in0.0 mm 0.00 in0.0 mm
10:40 PM 45.9°F7.7°C 30.2°F-1.0°C 56% 0.2 mph N0.3 kmh N 1.3 mph2.1 kmh 30.24 in1024.0 mb 0.00 in0.0 mm 0.00 in0.0 mm 0.00 in0.0 mm
10:45 PM 45.5°F7.5°C 30.2°F-1.0°C 55% 0.1 mph N0.2 kmh N 1.1 mph1.8 kmh 30.24 in1024.0 mb 0.00 in0.0 mm 0.00 in0.0 mm 0.00 in0.0 mm
10:50 PM 45.5°F7.5°C 30.2°F-1.0°C 56% 0.5 mph NE0.8 kmh NE 2.5 mph4.0 kmh 30.24 in1024.0 mb 0.00 in0.0 mm 0.00 in0.0 mm 0.00 in0.0 mm
10:55 PM 45.0°F7.2°C 30.2°F-1.0°C 56% 1.4 mph NE2.3 kmh NE 2.5 mph4.0 kmh 30.24 in1024.0 mb 0.00 in0.0 mm 0.00 in0.0 mm 0.00 in0.0 mm
11:00 PM 45.0°F7.2°C 30.2°F-1.0°C 56% 1.5 mph NE2.4 kmh NE 2.2 mph3.5 kmh 30.24 in1024.0 mb 0.00 in0.0 mm 0.00 in0.0 mm 0.00 in0.0 mm
11:05 PM 44.8°F7.1°C 30.2°F-1.0°C 57% 1.2 mph NE1.9 kmh NE 2.0 mph3.2 kmh 30.24 in1024.0 mb 0.00 in0.0 mm 0.00 in0.0 mm 0.00 in0.0 mm
11:10 PM 44.6°F7.0°C 30.2°F-1.0°C 57% 0.9 mph NE1.4 kmh NE 2.0 mph3.2 kmh 30.24 in1024.0 mb 0.00 in0.0 mm 0.00 in0.0 mm 0.00 in0.0 mm
11:15 PM 44.4°F6.9°C 30.2°F-1.0°C 57% 1.2 mph NE1.9 kmh NE 2.5 mph4.0 kmh 30.24 in1024.0 mb 0.00 in0.0 mm 0.00 in0.0 mm 0.00 in0.0 mm
11:20 PM 44.2°F6.8°C 30.2°F-1.0°C 57% 1.5 mph NE2.4 kmh NE 2.5 mph4.0 kmh 30.24 in1024.0 mb 0.00 in0.0 mm 0.00 in0.0 mm 0.00 in0.0 mm
11:25 PM 44.1°F6.7°C 30.2°F-1.0°C 57% 1.4 mph NE2.3 kmh NE 2.0 mph3.2 kmh 30.24 in1024.0 mb 0.00 in0.0 mm 0.00 in0.0 mm 0.00 in0.0 mm
11:30 PM 44.1°F6.7°C 30.2°F-1.0°C 57% 1.6 mph NE2.6 kmh NE 2.5 mph4.0 kmh 30.24 in1024.0 mb 0.00 in0.0 mm 0.00 in0.0 mm 0.00 in0.0 mm
11:35 PM 43.5°F6.4°C 30.2°F-1.0°C 57% 1.6 mph NE2.6 kmh NE 2.5 mph4.0 kmh 30.24 in1024.0 mb 0.00 in0.0 mm 0.00 in0.0 mm 0.00 in0.0 mm
11:40 PM 43.7°F6.5°C 30.2°F-1.0°C 58% 1.4 mph NE2.3 kmh NE 3.4 mph5.5 kmh 30.24 in1024.0 mb 0.00 in0.0 mm 0.00 in0.0 mm 0.00 in0.0 mm
11:45 PM 43.5°F6.4°C 30.2°F-1.0°C 58% 1.0 mph ENE1.6 kmh ENE 3.4 mph5.5 kmh 30.24 in1024.0 mb 0.00 in0.0 mm 0.00 in0.0 mm 0.00 in0.0 mm
11:50 PM 43.3°F6.3°C 30.2°F-1.0°C 58% 0.7 mph ENE1.1 kmh ENE 2.5 mph4.0 kmh 30.24 in1024.0 mb 0.00 in0.0 mm 0.00 in0.0 mm 0.00 in0.0 mm
11:55 PM 43.2°F6.2°C 30.2°F-1.0°C 58% 0.8 mph ENE1.3 kmh ENE 1.1 mph1.8 kmh 30.21 in1023.0 mb 0.00 in0.0 mm 0.00 in0.0 mm 0.00 in0.0 mm